Nearby METAR Reports

 

KSJC - San Jose, California, USA
Distance from station: NE 14km
Updated: 27/01/2021 13:53
Mostly cloudy
Mostly cloudy
 Wind from SE
Wind: SE 26 km/h
Temperature: 9°C
Wind Chill: 6°C
Dew Point: 6°C
Humidity: 82%
Barometer: 1007.1 hPa
Clouds: Mostly cloudy
Visibility: 16 km
Cloud details: Few Clouds 1097 m
Partly cloudy 1402 m
Mostly cloudy 1829 m
2021/01/27 11:53 KSJC 271153Z AUTO 14014KT 10SM FEW036 SCT046 BKN060 09/06 A2974 RMK AO2 RAE32 SLP071 P0000 60052 70054 T00940061 10094 20067 53016
KNUQ - Moffett Nas/Mtn, California, USA
Distance from station: N 14km
Updated: 27/01/2021 14:10
Overcast
Overcast
 Wind from SE
Wind: SE 11 km/h
Temperature: 9°C
Wind Chill: 7°C
Dew Point: 7°C
Humidity: 87%
Barometer: 1007.5 hPa
Clouds: Overcast
Visibility: 16 km
Cloud details: Few Clouds 975 m
Partly cloudy 1250 m
Overcast 1524 m
2021/01/27 12:10 KNUQ 271210Z AUTO 14006KT 10SM FEW032 SCT041 OVC050 09/07 A2975 RMK AO2
 
KPAO - Palo Alto, California, USA
Distance from station: NNW 23km
Updated: 27/01/2021 06:47
NOT Current
Rain, Overcast
Rain, Overcast
 Wind from SSE
Wind: SSE 43 km/h, Gust: 67 km/h
Temperature: 7°C
Wind Chill: 2°C
Dew Point: 3°C
Humidity: 76%
Barometer: 1007.1 hPa
Summary: Rain
Clouds: Overcast
Visibility: 16 km
Cloud details: Overcast 914 m
2021/01/27 04:47 KPAO 270447Z 15023G36KT 10SM RA OVC030 07/03 A2974 RMK LAST
KRHV - San Jose/Reid, California, USA
Distance from station: ENE 19km
Updated: 27/01/2021 07:55
NOT Current
Light rain, Overcast
Light rain, Overcast
 Wind from SSE
Wind: SSE 35 km/h, Gust: 50 km/h
Temperature: 7°C
Wind Chill: 3°C
Dew Point: 4°C
Humidity: 81%
Barometer: 1007.5 hPa
Summary: Light rain
Clouds: Overcast
Visibility: 16 km
Cloud details: Mostly cloudy 1676 m
Overcast 274 m
2021/01/27 05:55 KRHV 270555Z 15019G27KT 10SM -RA BKN055 OVC0090 07/04 A2975 RMK LAST
 
KOAK - Oakland, California, USA
Distance from station: NNW 50km
Updated: 27/01/2021 14:14
Overcast
Overcast
 Wind from SSE
Wind: SSE 19 km/h
Temperature: 11°C
Dew Point: 8°C
Humidity: 82%
Barometer: 1006.8 hPa
Clouds: Overcast
Visibility: 16 km
Cloud details: Partly cloudy 732 m
Mostly cloudy 1158 m
Overcast 1524 m
2021/01/27 12:14 KOAK 271214Z 15010KT 10SM SCT024 BKN038 OVC050 11/08 A2973 RMK AO2 RAE13 P0000 T01060078
KSQL - San Carlos Airpo, California, USA
Distance from station: NW 34km
Updated: 27/01/2021 14:15
Mostly cloudy
Mostly cloudy
 
Temperature: 12°C
Dew Point: 7°C
Humidity: 72%
Barometer: 1007.1 hPa
Clouds: Mostly cloudy
Visibility: 16 km
Cloud details: Few Clouds 975 m
Partly cloudy 1311 m
Mostly cloudy 1463 m
2021/01/27 12:15 KSQL 271215Z AUTO 10SM FEW032 SCT043 BKN048 12/07 A2974 RMK AO2
 
KSFO - San Francisco, California, USA
Distance from station: NW 49km
Updated: 27/01/2021 13:56
Mostly cloudy
Mostly cloudy
 Wind from SW
Wind: SW 24 km/h
Temperature: 12°C
Dew Point: 8°C
Humidity: 77%
Barometer: 1006.1 hPa
Clouds: Mostly cloudy
Visibility: 16 km
Cloud details: Partly cloudy 823 m
Mostly cloudy 1341 m
Mostly cloudy 1676 m
2021/01/27 11:56 KSFO 271156Z 23013KT 10SM SCT027 BKN044 BKN055 12/08 A2971 RMK AO2 SLP061 60114 70137 T01220078 10128 20078 53018 $
KE16 - San Martin, California, USA
Distance from station: ESE 43km
Updated: 27/01/2021 13:55
Overcast
Overcast
 Wind from ESE
Wind: ESE 31 km/h, Gust: 37 km/h
Temperature: 8°C
Wind Chill: 3°C
Dew Point: 8°C
Humidity: 100%
Barometer: 1008.5 hPa
Clouds: Overcast
Visibility: 3 km
Cloud details: Mostly cloudy 244 m
Mostly cloudy 396 m
Overcast 853 m
2021/01/27 11:55 KE16 271155Z AUTO 12017G20KT 2SM UP BKN008 BKN013 OVC028 08/08 A2978 RMK AO2
 
KWVI - Watsonville, California, USA
Distance from station: SSE 44km
Updated: 27/01/2021 13:53
Light rain, Overcast
Light rain, Overcast
 Wind from S
Wind: S 17 km/h
Temperature: 9°C
Wind Chill: 7°C
Dew Point: 8°C
Humidity: 94%
Barometer: 1008.5 hPa
Summary: Light rain
Clouds: Overcast
Visibility: 16 km
Cloud details: Overcast 152 m
2021/01/27 11:53 KWVI 271153Z AUTO 17009KT 10SM -RA OVC005 09/08 A2978 RMK AO2 SLP083 P0017 60150 70168 T00890083 10106 20083 53010
KHAF - Half Moon Bay, California, USA
Distance from station: WNW 50km
Updated: 27/01/2021 14:15
Mist, Overcast
Mist, Overcast
 Wind from SSW
Wind: SSW 9 km/h
Temperature: 10°C
Wind Chill: 9°C
Dew Point: 9°C
Humidity: 94%
Barometer: 1006.8 hPa
Summary: Mist
Clouds: Overcast
Visibility: 8 km
Cloud details: Mostly cloudy 518 m
Overcast 1189 m
2021/01/27 12:15 KHAF 271215Z AUTO 21005KT 5SM BR BKN017 OVC039 10/09 A2973 RMK AO2
 
KHWD - Hayward, California, USA
Distance from station: N 44km
Updated: 27/01/2021 14:13
Mostly cloudy
Mostly cloudy
 Wind from SSE
Wind: SSE 20 km/h
Temperature: 9°C
Wind Chill: 6°C
Dew Point: 7°C
Humidity: 87%
Barometer: 1006.8 hPa
Clouds: Mostly cloudy
Visibility: 16 km
Cloud details: Few Clouds 579 m
Partly cloudy 732 m
Mostly cloudy 1829 m
2021/01/27 12:13 KHWD 271213Z AUTO 15011KT 10SM FEW019 SCT024 BKN060 09/07 A2973 RMK AO2 T00890067
KLVK - Livermore, California, USA
Distance from station: NNE 51km
Updated: 27/01/2021 13:53
Light rain, Overcast
Light rain, Overcast
 
Temperature: 8°C
Dew Point: 6°C
Humidity: 87%
Barometer: 1006.4 hPa
Summary: Light rain
Clouds: Overcast
Visibility: 16 km
Cloud details: Partly cloudy 914 m
Mostly cloudy 1524 m
Overcast 2438 m
2021/01/27 11:53 KLVK 271153Z AUTO 10SM -RA SCT030 BKN050 OVC080 08/06 A2972 RMK AO2 RAE10B43 SLP064 P0000 60051 70055 T00830056 10106 20072 53010